sensor_id;sensor_type;location;lat;lon;timestamp;pressure;altitude;pressure_sealevel;temperature;humidity
10462;BME280;5278;42.656;23.374;2022-08-19T00:00:49;94381.66;;;27.07;47.91
10462;BME280;5278;42.656;23.374;2022-08-19T00:03:16;94382.59;;;27.21;47.42
10462;BME280;5278;42.656;23.374;2022-08-19T00:05:45;94380.44;;;27.23;47.62
10462;BME280;5278;42.656;23.374;2022-08-19T00:08:11;94363.53;;;27.09;47.78
10462;BME280;5278;42.656;23.374;2022-08-19T00:10:38;94388.13;;;27.25;47.71
10462;BME280;5278;42.656;23.374;2022-08-19T00:13:05;94386.84;;;27.22;47.79
10462;BME280;5278;42.656;23.374;2022-08-19T00:15:32;94377.25;;;27.21;47.61
10462;BME280;5278;42.656;23.374;2022-08-19T00:17:59;94387.53;;;27.33;48.01
10462;BME280;5278;42.656;23.374;2022-08-19T00:20:26;94391.84;;;27.29;48.27
10462;BME280;5278;42.656;23.374;2022-08-19T00:22:54;94396.41;;;27.28;48.55
10462;BME280;5278;42.656;23.374;2022-08-19T00:25:21;94395.31;;;27.29;48.88
10462;BME280;5278;42.656;23.374;2022-08-19T00:27:48;94390.25;;;27.28;48.92
10462;BME280;5278;42.656;23.374;2022-08-19T00:30:15;94394.00;;;27.27;49.00
10462;BME280;5278;42.656;23.374;2022-08-19T00:32:42;94392.94;;;27.28;49.04
10462;BME280;5278;42.656;23.374;2022-08-19T00:35:09;94399.13;;;27.23;49.38
10462;BME280;5278;42.656;23.374;2022-08-19T00:37:37;94404.50;;;27.18;49.90
10462;BME280;5278;42.656;23.374;2022-08-19T00:40:12;94393.88;;;27.13;49.90
10462;BME280;5278;42.656;23.374;2022-08-19T00:42:39;94393.88;;;27.13;50.35
10462;BME280;5278;42.656;23.374;2022-08-19T00:45:12;94394.91;;;27.17;50.53
10462;BME280;5278;42.656;23.374;2022-08-19T00:47:39;94384.00;;;27.14;50.54
10462;BME280;5278;42.656;23.374;2022-08-19T00:50:08;94387.97;;;27.16;51.38
10462;BME280;5278;42.656;23.374;2022-08-19T00:52:41;94395.94;;;27.21;51.30
10462;BME280;5278;42.656;23.374;2022-08-19T00:55:14;94385.81;;;27.18;52.17
10462;BME280;5278;42.656;23.374;2022-08-19T00:57:48;94389.28;;;27.19;51.50
10462;BME280;5278;42.656;23.374;2022-08-19T01:00:18;94391.72;;;27.15;50.74
10462;BME280;5278;42.656;23.374;2022-08-19T01:02:46;94385.63;;;27.15;50.69
10462;BME280;5278;42.656;23.374;2022-08-19T01:05:14;94394.97;;;27.12;50.59
10462;BME280;5278;42.656;23.374;2022-08-19T01:07:44;94393.88;;;27.13;50.86
10462;BME280;5278;42.656;23.374;2022-08-19T01:10:16;94390.94;;;27.15;50.17
10462;BME280;5278;42.656;23.374;2022-08-19T01:12:45;94389.63;;;27.12;50.09
10462;BME280;5278;42.656;23.374;2022-08-19T01:15:14;94390.25;;;27.04;50.85
10462;BME280;5278;42.656;23.374;2022-08-19T01:17:44;94389.72;;;27.02;50.45
10462;BME280;5278;42.656;23.374;2022-08-19T01:20:15;94386.03;;;26.98;49.75
10462;BME280;5278;42.656;23.374;2022-08-19T01:22:47;94392.53;;;26.87;49.89
10462;BME280;5278;42.656;23.374;2022-08-19T01:25:16;94394.97;;;26.83;50.09
10462;BME280;5278;42.656;23.374;2022-08-19T01:27:47;94379.81;;;26.79;49.88
10462;BME280;5278;42.656;23.374;2022-08-19T01:30:16;94383.50;;;26.83;50.33
10462;BME280;5278;42.656;23.374;2022-08-19T01:32:44;94393.88;;;26.89;49.82
10462;BME280;5278;42.656;23.374;2022-08-19T01:35:12;94396.81;;;26.83;49.16
10462;BME280;5278;42.656;23.374;2022-08-19T01:37:45;94398.84;;;26.67;48.70
10462;BME280;5278;42.656;23.374;2022-08-19T01:40:12;94389.19;;;26.42;50.73
10462;BME280;5278;42.656;23.374;2022-08-19T01:42:39;94390.28;;;26.36;50.56
10462;BME280;5278;42.656;23.374;2022-08-19T01:45:07;94390.34;;;26.26;50.00
10462;BME280;5278;42.656;23.374;2022-08-19T01:47:34;94385.03;;;26.21;50.38
10462;BME280;5278;42.656;23.374;2022-08-19T01:50:02;94385.59;;;26.23;50.16
10462;BME280;5278;42.656;23.374;2022-08-19T01:52:29;94380.88;;;26.10;50.41
10462;BME280;5278;42.656;23.374;2022-08-19T01:54:58;94385.13;;;26.06;50.29
10462;BME280;5278;42.656;23.374;2022-08-19T01:57:24;94390.34;;;26.21;50.58
10462;BME280;5278;42.656;23.374;2022-08-19T01:59:51;94381.88;;;26.24;50.36
10462;BME280;5278;42.656;23.374;2022-08-19T02:02:19;94388.81;;;26.15;50.09
10462;BME280;5278;42.656;23.374;2022-08-19T02:04:46;94394.22;;;26.05;50.25
10462;BME280;5278;42.656;23.374;2022-08-19T02:07:13;94383.03;;;26.03;51.92
10462;BME280;5278;42.656;23.374;2022-08-19T02:09:40;94392.56;;;26.14;51.18
10462;BME280;5278;42.656;23.374;2022-08-19T02:12:08;94385.88;;;26.17;51.35
10462;BME280;5278;42.656;23.374;2022-08-19T02:14:35;94381.09;;;26.13;51.48
10462;BME280;5278;42.656;23.374;2022-08-19T02:17:02;94389.34;;;26.12;51.58
10462;BME280;5278;42.656;23.374;2022-08-19T02:19:29;94393.88;;;26.11;51.72
10462;BME280;5278;42.656;23.374;2022-08-19T02:21:57;94382.41;;;26.16;51.46
10462;BME280;5278;42.656;23.374;2022-08-19T02:24:24;94389.31;;;26.22;51.78
10462;BME280;5278;42.656;23.374;2022-08-19T02:26:50;94386.66;;;26.22;51.92
10462;BME280;5278;42.656;23.374;2022-08-19T02:29:19;94396.78;;;26.20;52.36
10462;BME280;5278;42.656;23.374;2022-08-19T02:31:46;94393.84;;;26.22;52.30
10462;BME280;5278;42.656;23.374;2022-08-19T02:34:13;94392.53;;;26.24;52.38
10462;BME280;5278;42.656;23.374;2022-08-19T02:36:40;94394.63;;;26.27;52.34
10462;BME280;5278;42.656;23.374;2022-08-19T02:39:06;94398.31;;;26.31;52.62
10462;BME280;5278;42.656;23.374;2022-08-19T02:41:33;94395.91;;;26.35;52.61
10462;BME280;5278;42.656;23.374;2022-08-19T02:44:02;94399.88;;;26.37;52.80
10462;BME280;5278;42.656;23.374;2022-08-19T02:46:32;94392.19;;;26.31;52.61
10462;BME280;5278;42.656;23.374;2022-08-19T02:49:02;94406.34;;;26.26;53.05
10462;BME280;5278;42.656;23.374;2022-08-19T02:51:33;94396.75;;;26.25;52.70
10462;BME280;5278;42.656;23.374;2022-08-19T02:54:00;94402.38;;;26.24;52.48
10462;BME280;5278;42.656;23.374;2022-08-19T02:56:27;94410.06;;;26.25;52.15
10462;BME280;5278;42.656;23.374;2022-08-19T02:58:54;94399.38;;;26.30;51.80
10462;BME280;5278;42.656;23.374;2022-08-19T03:01:23;94401.28;;;26.30;51.43
10462;BME280;5278;42.656;23.374;2022-08-19T03:03:51;94398.63;;;26.30;51.51
10462;BME280;5278;42.656;23.374;2022-08-19T03:06:18;94409.53;;;26.28;51.27
10462;BME280;5278;42.656;23.374;2022-08-19T03:08:47;94405.53;;;26.21;51.70
10462;BME280;5278;42.656;23.374;2022-08-19T03:11:16;94379.13;;;25.90;51.58
10462;BME280;5278;42.656;23.374;2022-08-19T03:13:44;94382.28;;;25.92;51.39
10462;BME280;5278;42.656;23.374;2022-08-19T03:16:12;94392.16;;;25.92;51.62
10462;BME280;5278;42.656;23.374;2022-08-19T03:18:39;94393.72;;;25.98;51.72
10462;BME280;5278;42.656;23.374;2022-08-19T03:21:07;94388.41;;;25.93;51.10
10462;BME280;5278;42.656;23.374;2022-08-19T03:23:34;94393.56;;;25.79;51.85
10462;BME280;5278;42.656;23.374;2022-08-19T03:26:04;94388.00;;;25.70;51.84
10462;BME280;5278;42.656;23.374;2022-08-19T03:28:31;94382.44;;;25.67;50.85
10462;BME280;5278;42.656;23.374;2022-08-19T03:31:01;94392.56;;;25.70;51.75
10462;BME280;5278;42.656;23.374;2022-08-19T03:33:29;94395.47;;;25.68;51.80
10462;BME280;5278;42.656;23.374;2022-08-19T03:36:02;94400.28;;;25.66;52.01
10462;BME280;5278;42.656;23.374;2022-08-19T03:38:31;94390.97;;;25.64;52.51
10462;BME280;5278;42.656;23.374;2022-08-19T03:41:02;94400.53;;;25.70;52.24
10462;BME280;5278;42.656;23.374;2022-08-19T03:43:32;94405.56;;;25.71;52.33
10462;BME280;5278;42.656;23.374;2022-08-19T03:46:01;94405.00;;;25.80;51.79
10462;BME280;5278;42.656;23.374;2022-08-19T03:48:30;94363.84;;;25.52;51.60
10462;BME280;5278;42.656;23.374;2022-08-19T03:50:58;94412.66;;;25.91;51.75
10462;BME280;5278;42.656;23.374;2022-08-19T03:53:26;94419.06;;;25.90;52.30
10462;BME280;5278;42.656;23.374;2022-08-19T03:55:55;94416.06;;;26.02;52.38
10462;BME280;5278;42.656;23.374;2022-08-19T03:58:23;94418.78;;;25.92;51.92
10462;BME280;5278;42.656;23.374;2022-08-19T04:00:50;94420.97;;;25.85;52.18
10462;BME280;5278;42.656;23.374;2022-08-19T04:03:17;94419.84;;;25.91;51.89
10462;BME280;5278;42.656;23.374;2022-08-19T04:05:45;94431.78;;;26.03;51.42
10462;BME280;5278;42.656;23.374;2022-08-19T04:08:13;94444.75;;;26.20;50.98
10462;BME280;5278;42.656;23.374;2022-08-19T04:10:44;94429.19;;;26.37;51.25
10462;BME280;5278;42.656;23.374;2022-08-19T04:13:12;94432.78;;;26.56;51.33
10462;BME280;5278;42.656;23.374;2022-08-19T04:15:39;94434.78;;;26.75;50.83
10462;BME280;5278;42.656;23.374;2022-08-19T04:18:08;94437.63;;;26.88;49.98
10462;BME280;5278;42.656;23.374;2022-08-19T04:20:40;94441.44;;;27.06;49.05
10462;BME280;5278;42.656;23.374;2022-08-19T04:23:07;94417.22;;;27.03;48.74
10462;BME280;5278;42.656;23.374;2022-08-19T04:25:38;94411.38;;;27.24;48.75
10462;BME280;5278;42.656;23.374;2022-08-19T04:28:06;94442.47;;;27.63;47.36
10462;BME280;5278;42.656;23.374;2022-08-19T04:30:41;94430.16;;;27.67;47.25
10462;BME280;5278;42.656;23.374;2022-08-19T04:33:08;94442.03;;;27.98;46.80
10462;BME280;5278;42.656;23.374;2022-08-19T04:35:37;94447.25;;;28.08;46.25
10462;BME280;5278;42.656;23.374;2022-08-19T04:38:05;94443.75;;;28.13;45.07
10462;BME280;5278;42.656;23.374;2022-08-19T04:40:32;94441.09;;;27.89;44.90
10462;BME280;5278;42.656;23.374;2022-08-19T04:43:16;94441.53;;;27.96;45.35
10462;BME280;5278;42.656;23.374;2022-08-19T04:45:45;94433.28;;;27.93;44.88
10462;BME280;5278;42.656;23.374;2022-08-19T04:48:12;94433.38;;;27.88;44.70
10462;BME280;5278;42.656;23.374;2022-08-19T04:50:42;94436.16;;;27.77;45.28
10462;BME280;5278;42.656;23.374;2022-08-19T04:53:09;94436.38;;;27.81;45.75
10462;BME280;5278;42.656;23.374;2022-08-19T04:55:41;94440.19;;;27.75;45.74
10462;BME280;5278;42.656;23.374;2022-08-19T04:58:08;94442.78;;;27.80;46.24
10462;BME280;5278;42.656;23.374;2022-08-19T05:00:37;94440.31;;;28.07;45.66
10462;BME280;5278;42.656;23.374;2022-08-19T05:03:05;94446.56;;;28.21;45.55
10462;BME280;5278;42.656;23.374;2022-08-19T05:05:32;94454.16;;;28.33;45.09
10462;BME280;5278;42.656;23.374;2022-08-19T05:07:59;94447.88;;;28.43;44.87
10462;BME280;5278;42.656;23.374;2022-08-19T05:10:26;94445.53;;;28.55;44.24
10462;BME280;5278;42.656;23.374;2022-08-19T05:12:52;94457.75;;;28.61;44.16
10462;BME280;5278;42.656;23.374;2022-08-19T05:15:19;94445.50;;;28.92;43.66
10462;BME280;5278;42.656;23.374;2022-08-19T05:17:46;94444.56;;;29.29;42.96
10462;BME280;5278;42.656;23.374;2022-08-19T05:20:28;94435.31;;;29.68;41.98
10462;BME280;5278;42.656;23.374;2022-08-19T05:23:13;94443.72;;;30.16;40.64
10462;BME280;5278;42.656;23.374;2022-08-19T05:25:41;94434.44;;;30.35;40.16
10462;BME280;5278;42.656;23.374;2022-08-19T05:28:08;94442.59;;;30.66;39.36
10462;BME280;5278;42.656;23.374;2022-08-19T05:30:34;94443.25;;;30.94;38.36
10462;BME280;5278;42.656;23.374;2022-08-19T05:33:01;94440.78;;;31.29;37.95
10462;BME280;5278;42.656;23.374;2022-08-19T05:35:29;94449.97;;;31.58;37.51
10462;BME280;5278;42.656;23.374;2022-08-19T05:37:56;94447.06;;;31.86;36.91
10462;BME280;5278;42.656;23.374;2022-08-19T05:40:23;94445.44;;;32.24;36.50
10462;BME280;5278;42.656;23.374;2022-08-19T05:42:49;94443.56;;;32.51;35.74
10462;BME280;5278;42.656;23.374;2022-08-19T05:45:17;94454.38;;;32.68;35.78
10462;BME280;5278;42.656;23.374;2022-08-19T05:47:43;94445.78;;;33.00;34.96
10462;BME280;5278;42.656;23.374;2022-08-19T05:50:10;94443.22;;;33.21;34.75
10462;BME280;5278;42.656;23.374;2022-08-19T05:52:39;94418.06;;;33.55;33.71
10462;BME280;5278;42.656;23.374;2022-08-19T05:55:07;94447.22;;;33.99;32.98
10462;BME280;5278;42.656;23.374;2022-08-19T05:57:33;94442.16;;;34.27;32.77
10462;BME280;5278;42.656;23.374;2022-08-19T06:00:00;94447.94;;;34.58;32.14
10462;BME280;5278;42.656;23.374;2022-08-19T06:02:28;94452.97;;;34.89;31.91
10462;BME280;5278;42.656;23.374;2022-08-19T06:04:55;94437.25;;;35.04;31.64
10462;BME280;5278;42.656;23.374;2022-08-19T06:07:22;94447.72;;;35.38;30.95
10462;BME280;5278;42.656;23.374;2022-08-19T06:09:50;94445.53;;;35.64;30.23
10462;BME280;5278;42.656;23.374;2022-08-19T06:12:17;94462.25;;;35.91;29.58
10462;BME280;5278;42.656;23.374;2022-08-19T06:14:44;94452.69;;;36.30;28.92
10462;BME280;5278;42.656;23.374;2022-08-19T06:17:11;94446.31;;;36.50;28.55
10462;BME280;5278;42.656;23.374;2022-08-19T06:19:38;94451.13;;;36.69;27.76
10462;BME280;5278;42.656;23.374;2022-08-19T06:22:06;94448.72;;;37.07;27.29
10462;BME280;5278;42.656;23.374;2022-08-19T06:24:33;94461.56;;;37.22;27.16
10462;BME280;5278;42.656;23.374;2022-08-19T06:27:03;94452.81;;;37.57;27.07
10462;BME280;5278;42.656;23.374;2022-08-19T06:29:31;94425.78;;;37.60;27.32
10462;BME280;5278;42.656;23.374;2022-08-19T06:31:59;94452.91;;;37.60;27.02
10462;BME280;5278;42.656;23.374;2022-08-19T06:34:29;94451.13;;;37.08;27.57
10462;BME280;5278;42.656;23.374;2022-08-19T06:36:58;94466.19;;;36.94;28.22
10462;BME280;5278;42.656;23.374;2022-08-19T06:39:28;94456.44;;;37.05;27.79
10462;BME280;5278;42.656;23.374;2022-08-19T06:42:00;94450.09;;;37.13;27.77
10462;BME280;5278;42.656;23.374;2022-08-19T06:44:30;94456.06;;;37.06;27.79
10462;BME280;5278;42.656;23.374;2022-08-19T06:47:01;94449.66;;;37.11;27.95
10462;BME280;5278;42.656;23.374;2022-08-19T06:49:28;94453.44;;;37.22;28.73
10462;BME280;5278;42.656;23.374;2022-08-19T06:51:56;94439.16;;;37.69;28.03
10462;BME280;5278;42.656;23.374;2022-08-19T06:54:24;94448.09;;;37.69;27.61
10462;BME280;5278;42.656;23.374;2022-08-19T06:56:53;94449.31;;;37.56;27.34
10462;BME280;5278;42.656;23.374;2022-08-19T06:59:22;94451.94;;;37.68;27.94
10462;BME280;5278;42.656;23.374;2022-08-19T07:01:55;94456.41;;;38.08;27.08
10462;BME280;5278;42.656;23.374;2022-08-19T07:04:47;94447.41;;;38.54;26.87
10462;BME280;5278;42.656;23.374;2022-08-19T07:07:14;94455.09;;;39.06;26.28
10462;BME280;5278;42.656;23.374;2022-08-19T07:09:43;94460.03;;;39.39;25.63
10462;BME280;5278;42.656;23.374;2022-08-19T07:12:12;94468.91;;;39.78;25.20
10462;BME280;5278;42.656;23.374;2022-08-19T07:14:41;94460.41;;;40.29;24.58
10462;BME280;5278;42.656;23.374;2022-08-19T07:17:11;94450.84;;;40.68;24.11
10462;BME280;5278;42.656;23.374;2022-08-19T07:19:39;94466.56;;;40.26;24.00
10462;BME280;5278;42.656;23.374;2022-08-19T07:22:07;94456.09;;;40.28;24.24
10462;BME280;5278;42.656;23.374;2022-08-19T07:24:36;94464.56;;;40.49;24.45
10462;BME280;5278;42.656;23.374;2022-08-19T07:27:05;94458.19;;;40.64;23.94
10462;BME280;5278;42.656;23.374;2022-08-19T07:29:34;94462.38;;;40.58;23.17
10462;BME280;5278;42.656;23.374;2022-08-19T07:32:02;94440.13;;;40.56;22.92
10462;BME280;5278;42.656;23.374;2022-08-19T07:34:32;94455.47;;;40.94;23.20
10462;BME280;5278;42.656;23.374;2022-08-19T07:37:02;94434.81;;;40.97;22.63
10462;BME280;5278;42.656;23.374;2022-08-19T07:39:31;94453.38;;;41.51;22.49
10462;BME280;5278;42.656;23.374;2022-08-19T07:42:00;94454.97;;;41.52;22.18
10462;BME280;5278;42.656;23.374;2022-08-19T07:44:27;94455.34;;;41.50;22.38
10462;BME280;5278;42.656;23.374;2022-08-19T07:46:56;94452.22;;;41.89;22.34
10462;BME280;5278;42.656;23.374;2022-08-19T07:49:24;94451.75;;;42.27;22.13
10462;BME280;5278;42.656;23.374;2022-08-19T07:51:54;94456.72;;;42.73;20.92
10462;BME280;5278;42.656;23.374;2022-08-19T07:54:25;94445.97;;;43.12;20.65
10462;BME280;5278;42.656;23.374;2022-08-19T07:56:52;94435.47;;;43.31;20.52
10462;BME280;5278;42.656;23.374;2022-08-19T07:59:20;94447.31;;;43.99;20.25
10462;BME280;5278;42.656;23.374;2022-08-19T08:01:47;94451.59;;;44.46;19.25
10462;BME280;5278;42.656;23.374;2022-08-19T08:04:15;94462.16;;;44.69;19.02
10462;BME280;5278;42.656;23.374;2022-08-19T08:07:02;94460.03;;;45.23;18.57
10462;BME280;5278;42.656;23.374;2022-08-19T08:09:47;94450.97;;;45.26;18.50
10462;BME280;5278;42.656;23.374;2022-08-19T08:12:16;94451.97;;;45.60;18.47
10462;BME280;5278;42.656;23.374;2022-08-19T08:14:47;94453.22;;;45.52;18.23
10462;BME280;5278;42.656;23.374;2022-08-19T08:17:15;94447.50;;;45.88;18.60
10462;BME280;5278;42.656;23.374;2022-08-19T08:19:43;94442.94;;;46.15;18.02
10462;BME280;5278;42.656;23.374;2022-08-19T08:22:15;94445.53;;;46.36;17.83
10462;BME280;5278;42.656;23.374;2022-08-19T08:25:12;94438.19;;;46.63;17.17
10462;BME280;5278;42.656;23.374;2022-08-19T08:27:41;94438.81;;;47.12;17.25
10462;BME280;5278;42.656;23.374;2022-08-19T08:30:09;94433.47;;;47.62;16.62
10462;BME280;5278;42.656;23.374;2022-08-19T08:32:38;94438.59;;;47.87;16.08
10462;BME280;5278;42.656;23.374;2022-08-19T08:35:07;94435.53;;;48.28;16.21
10462;BME280;5278;42.656;23.374;2022-08-19T08:37:36;94442.72;;;48.88;15.38
10462;BME280;5278;42.656;23.374;2022-08-19T08:40:05;94432.03;;;49.30;14.85
10462;BME280;5278;42.656;23.374;2022-08-19T08:42:36;94439.34;;;49.40;14.79
10462;BME280;5278;42.656;23.374;2022-08-19T08:45:12;94431.50;;;49.54;14.58
10462;BME280;5278;42.656;23.374;2022-08-19T08:47:44;94424.22;;;49.96;14.10
10462;BME280;5278;42.656;23.374;2022-08-19T08:50:17;94423.78;;;50.14;14.20
10462;BME280;5278;42.656;23.374;2022-08-19T08:52:47;94422.72;;;50.40;13.88
10462;BME280;5278;42.656;23.374;2022-08-19T08:55:19;94415.50;;;50.59;13.74
10462;BME280;5278;42.656;23.374;2022-08-19T08:57:51;94413.75;;;50.94;12.64
10462;BME280;5278;42.656;23.374;2022-08-19T09:00:23;94407.31;;;50.97;12.75
10462;BME280;5278;42.656;23.374;2022-08-19T09:02:52;94415.66;;;51.64;12.53
10462;BME280;5278;42.656;23.374;2022-08-19T09:05:20;94414.16;;;52.10;12.56
10462;BME280;5278;42.656;23.374;2022-08-19T09:07:54;94400.66;;;51.87;12.79
10462;BME280;5278;42.656;23.374;2022-08-19T09:10:29;94408.56;;;52.35;12.01
10462;BME280;5278;42.656;23.374;2022-08-19T09:13:04;94404.03;;;52.63;11.61
10462;BME280;5278;42.656;23.374;2022-08-19T09:15:38;94410.31;;;52.55;11.67
10462;BME280;5278;42.656;23.374;2022-08-19T09:18:08;94403.69;;;52.61;11.55
10462;BME280;5278;42.656;23.374;2022-08-19T09:20:35;94402.38;;;52.66;11.09
10462;BME280;5278;42.656;23.374;2022-08-19T09:23:03;94398.84;;;53.09;10.52
10462;BME280;5278;42.656;23.374;2022-08-19T09:25:30;94382.69;;;53.25;10.23
10462;BME280;5278;42.656;23.374;2022-08-19T09:28:00;94393.97;;;53.31;10.40
10462;BME280;5278;42.656;23.374;2022-08-19T09:30:31;94400.84;;;53.39;10.51
10462;BME280;5278;42.656;23.374;2022-08-19T09:32:58;94394.59;;;53.57;10.88
10462;BME280;5278;42.656;23.374;2022-08-19T09:35:27;94390.50;;;53.40;10.47
10462;BME280;5278;42.656;23.374;2022-08-19T09:37:55;94382.81;;;53.84;9.79
10462;BME280;5278;42.656;23.374;2022-08-19T09:40:24;94383.03;;;53.37;9.88
10462;BME280;5278;42.656;23.374;2022-08-19T09:42:51;94379.38;;;53.40;10.03
10462;BME280;5278;42.656;23.374;2022-08-19T09:45:19;94382.25;;;53.67;9.67
10462;BME280;5278;42.656;23.374;2022-08-19T09:47:48;94385.75;;;53.49;9.72
10462;BME280;5278;42.656;23.374;2022-08-19T09:50:16;94385.34;;;53.29;9.95
10462;BME280;5278;42.656;23.374;2022-08-19T09:52:44;94378.72;;;53.36;9.88
10462;BME280;5278;42.656;23.374;2022-08-19T09:55:11;94380.50;;;53.51;10.27
10462;BME280;5278;42.656;23.374;2022-08-19T09:57:40;94375.91;;;53.66;9.63
10462;BME280;5278;42.656;23.374;2022-08-19T10:00:08;94378.56;;;53.30;9.85
10462;BME280;5278;42.656;23.374;2022-08-19T10:02:36;94369.06;;;53.18;9.62
10462;BME280;5278;42.656;23.374;2022-08-19T10:05:03;94362.66;;;53.40;9.97
10462;BME280;5278;42.656;23.374;2022-08-19T10:07:47;94361.75;;;53.12;9.80
10462;BME280;5278;42.656;23.374;2022-08-19T10:10:15;94354.28;;;53.31;10.08
10462;BME280;5278;42.656;23.374;2022-08-19T10:12:43;94353.53;;;53.30;10.30
10462;BME280;5278;42.656;23.374;2022-08-19T10:15:12;94351.97;;;53.69;9.66
10462;BME280;5278;42.656;23.374;2022-08-19T10:17:40;94356.75;;;53.59;9.83
10462;BME280;5278;42.656;23.374;2022-08-19T10:20:07;94358.19;;;53.82;10.03
10462;BME280;5278;42.656;23.374;2022-08-19T10:22:34;94355.41;;;53.82;10.14
10462;BME280;5278;42.656;23.374;2022-08-19T10:25:04;94354.19;;;53.92;10.10
10462;BME280;5278;42.656;23.374;2022-08-19T10:27:31;94354.78;;;53.78;9.81
10462;BME280;5278;42.656;23.374;2022-08-19T10:30:00;94343.63;;;53.07;9.87
10462;BME280;5278;42.656;23.374;2022-08-19T10:32:26;94344.22;;;53.02;10.04
10462;BME280;5278;42.656;23.374;2022-08-19T10:34:55;94345.47;;;53.01;10.17
10462;BME280;5278;42.656;23.374;2022-08-19T10:37:22;94342.25;;;53.34;9.94
10462;BME280;5278;42.656;23.374;2022-08-19T10:39:49;94343.44;;;53.02;10.42
10462;BME280;5278;42.656;23.374;2022-08-19T10:42:16;94340.66;;;53.23;10.35
10462;BME280;5278;42.656;23.374;2022-08-19T10:44:44;94337.69;;;53.49;10.19
10462;BME280;5278;42.656;23.374;2022-08-19T10:47:14;94336.28;;;53.44;9.83
10462;BME280;5278;42.656;23.374;2022-08-19T10:49:41;94337.41;;;52.94;10.11
10462;BME280;5278;42.656;23.374;2022-08-19T10:52:21;94328.63;;;52.74;10.89
10462;BME280;5278;42.656;23.374;2022-08-19T10:55:02;94332.91;;;52.66;10.54
10462;BME280;5278;42.656;23.374;2022-08-19T10:57:47;94330.13;;;52.66;10.46
10462;BME280;5278;42.656;23.374;2022-08-19T11:00:14;94324.59;;;52.31;10.30
10462;BME280;5278;42.656;23.374;2022-08-19T11:02:43;94325.09;;;52.17;10.64
10462;BME280;5278;42.656;23.374;2022-08-19T11:05:12;94323.69;;;52.34;10.87
10462;BME280;5278;42.656;23.374;2022-08-19T11:07:40;94318.13;;;52.13;10.81
10462;BME280;5278;42.656;23.374;2022-08-19T11:10:10;94320.31;;;52.18;9.96
10462;BME280;5278;42.656;23.374;2022-08-19T11:12:37;94318.47;;;52.02;10.42
10462;BME280;5278;42.656;23.374;2022-08-19T11:15:06;94313.13;;;51.60;10.44
10462;BME280;5278;42.656;23.374;2022-08-19T11:17:34;94314.13;;;51.41;10.72
10462;BME280;5278;42.656;23.374;2022-08-19T11:20:03;94318.97;;;50.99;10.90
10462;BME280;5278;42.656;23.374;2022-08-19T11:22:31;94310.25;;;51.13;11.19
10462;BME280;5278;42.656;23.374;2022-08-19T11:24:57;94310.78;;;50.96;11.52
10462;BME280;5278;42.656;23.374;2022-08-19T11:27:25;94303.69;;;51.33;11.42
10462;BME280;5278;42.656;23.374;2022-08-19T11:29:51;94310.47;;;51.19;11.69
10462;BME280;5278;42.656;23.374;2022-08-19T11:32:18;94301.06;;;51.16;11.50
10462;BME280;5278;42.656;23.374;2022-08-19T11:34:45;94303.34;;;50.93;11.74
10462;BME280;5278;42.656;23.374;2022-08-19T11:37:13;94300.91;;;50.95;11.71
10462;BME280;5278;42.656;23.374;2022-08-19T11:39:41;94301.50;;;50.73;11.64
10462;BME280;5278;42.656;23.374;2022-08-19T11:42:08;94301.94;;;50.47;11.75
10462;BME280;5278;42.656;23.374;2022-08-19T11:44:48;94290.41;;;50.03;11.79
10462;BME280;5278;42.656;23.374;2022-08-19T11:47:15;94282.59;;;49.69;12.01
10462;BME280;5278;42.656;23.374;2022-08-19T11:49:42;94286.03;;;49.89;12.12
10462;BME280;5278;42.656;23.374;2022-08-19T11:52:09;94291.53;;;49.77;12.58
10462;BME280;5278;42.656;23.374;2022-08-19T11:54:37;94294.38;;;49.41;11.86
10462;BME280;5278;42.656;23.374;2022-08-19T11:57:04;94287.72;;;49.02;12.51
10462;BME280;5278;42.656;23.374;2022-08-19T11:59:31;94279.03;;;48.48;12.92
10462;BME280;5278;42.656;23.374;2022-08-19T12:01:58;94284.03;;;47.71;13.78
10462;BME280;5278;42.656;23.374;2022-08-19T12:04:24;94277.22;;;47.29;14.14
10462;BME280;5278;42.656;23.374;2022-08-19T12:06:51;94271.00;;;46.37;14.24
10462;BME280;5278;42.656;23.374;2022-08-19T12:09:18;94267.69;;;45.78;14.93
10462;BME280;5278;42.656;23.374;2022-08-19T12:11:46;94266.28;;;45.59;15.31
10462;BME280;5278;42.656;23.374;2022-08-19T12:14:13;94265.44;;;45.21;15.88
10462;BME280;5278;42.656;23.374;2022-08-19T12:16:44;94271.13;;;44.89;16.12
10462;BME280;5278;42.656;23.374;2022-08-19T12:19:11;94260.06;;;44.27;16.52
10462;BME280;5278;42.656;23.374;2022-08-19T12:21:38;94257.44;;;43.88;16.55
10462;BME280;5278;42.656;23.374;2022-08-19T12:24:06;94250.81;;;43.57;17.06
10462;BME280;5278;42.656;23.374;2022-08-19T12:26:33;94248.09;;;43.25;17.00
10462;BME280;5278;42.656;23.374;2022-08-19T12:29:02;94246.91;;;42.98;17.10
10462;BME280;5278;42.656;23.374;2022-08-19T12:31:29;94236.28;;;42.75;17.76
10462;BME280;5278;42.656;23.374;2022-08-19T12:33:56;94242.88;;;42.53;18.16
10462;BME280;5278;42.656;23.374;2022-08-19T12:36:23;94217.78;;;42.19;18.25
10462;BME280;5278;42.656;23.374;2022-08-19T12:38:50;94246.91;;;41.90;18.18
10462;BME280;5278;42.656;23.374;2022-08-19T12:41:18;94233.50;;;41.67;18.76
10462;BME280;5278;42.656;23.374;2022-08-19T12:43:47;94233.00;;;41.51;18.87
10462;BME280;5278;42.656;23.374;2022-08-19T12:46:16;94227.63;;;41.11;18.84
10462;BME280;5278;42.656;23.374;2022-08-19T12:48:43;94228.59;;;40.89;19.55
10462;BME280;5278;42.656;23.374;2022-08-19T12:51:13;94222.78;;;40.53;19.40
10462;BME280;5278;42.656;23.374;2022-08-19T12:53:42;94223.66;;;40.27;20.08
10462;BME280;5278;42.656;23.374;2022-08-19T12:56:10;94227.31;;;40.09;19.88
10462;BME280;5278;42.656;23.374;2022-08-19T12:58:39;94228.06;;;40.06;19.91
10462;BME280;5278;42.656;23.374;2022-08-19T13:01:08;94230.59;;;39.91;19.63
10462;BME280;5278;42.656;23.374;2022-08-19T13:03:37;94222.16;;;39.70;20.20
10462;BME280;5278;42.656;23.374;2022-08-19T13:06:04;94219.19;;;39.79;20.26
10462;BME280;5278;42.656;23.374;2022-08-19T13:08:31;94217.38;;;39.90;20.17